Whiteman Air Force Base Knob noster US
ICAO: KSZL
IATA: SZL
Category: Large
Scheduled Services: No

Elevation: 870 ft
TransAlt. 18000 ft.

Airport Communications:
ARNG HAWK OPS:49.65
APP:127.45
ATIS:139.3
CLNC DEL:121.75
DEP:125.925
GND:128.275
303 TFS OPS:22.78
PMSV METRO:34.46
COMD POST:31.1
PTD:118.725
TWR:132.4

KSZL Zoom In..

Runways:

(A) RW 01 length 12400 ft width 200 ft
ILS 110.30 / hdg 7

(B) RW 19 length 12400 ft width 200 ft
ILS 108.50 / hdg 187

Location; KSZL
Day. 22 / Time. 00.56 Zulu
* Altimeter: 30.07
* Temperature: 16° c. 60.8°f.
* Wind from: 070° Speed 09 kn.
Dewpoint: -02° c.
Visibility: 10 Statute Miles.
Clouds: Scattered 1000 ft.

KSZL 220056Z AUTO 07009KT 10SM SCT100 16/M02 A3007 RMK AO2 SLP186 T01561024 $


Wind From 070°
Speed 09 kn.

  YouTube Music Video
 
jpsmedia.com for Web Design  worldairports.se 2018   terms of use